createdAt,value
2023-03-01T00:00:47.578Z,69.75
2023-03-01T00:03:20.246Z,70.02
2023-03-01T00:05:52.916Z,70.02
2023-03-01T00:08:25.588Z,69.98
2023-03-01T00:11:08.315Z,69.94
2023-03-01T00:13:41.203Z,70.07
2023-03-01T00:16:15.656Z,70.04
2023-03-01T00:18:48.353Z,69.92
2023-03-01T00:21:22.130Z,69.86
2023-03-01T00:23:55.618Z,69.73
2023-03-01T00:26:30.060Z,69.88
2023-03-01T00:29:02.983Z,69.92
2023-03-01T00:31:35.855Z,70.25
2023-03-01T00:34:09.011Z,70.01
2023-03-01T00:36:41.743Z,69.96
2023-03-01T00:39:16.135Z,69.88
2023-03-01T00:41:50.714Z,70.12
2023-03-01T00:44:23.501Z,69.99
2023-03-01T00:46:56.237Z,70.19
2023-03-01T00:49:29.636Z,69.83
2023-03-01T00:52:02.362Z,69.99
2023-03-01T00:54:35.071Z,70.20
2023-03-01T00:57:09.057Z,69.83
2023-03-01T00:59:41.725Z,69.86
2023-03-01T01:02:14.274Z,70.30
2023-03-01T01:04:46.998Z,69.86
2023-03-01T01:07:21.089Z,69.46
2023-03-01T01:09:53.804Z,69.70
2023-03-01T01:12:27.855Z,69.51
2023-03-01T01:15:00.835Z,69.70
2023-03-01T01:17:33.941Z,69.64
2023-03-01T01:20:07.197Z,69.40
2023-03-01T01:22:39.828Z,68.99
2023-03-01T01:25:12.730Z,69.43
2023-03-01T01:27:46.764Z,69.10
2023-03-01T01:30:19.583Z,69.45
2023-03-01T01:32:52.235Z,69.93
2023-03-01T01:35:24.932Z,69.83
2023-03-01T01:37:57.651Z,69.55
2023-03-01T01:40:30.378Z,69.44
2023-03-01T01:43:04.408Z,70.03
2023-03-01T01:45:37.593Z,70.06
2023-03-01T01:48:14.666Z,70.03
2023-03-01T01:50:48.787Z,69.68
2023-03-01T01:53:22.142Z,70.16
2023-03-01T01:55:58.155Z,70.03
2023-03-01T01:58:32.683Z,69.67
2023-03-01T02:01:06.051Z,69.78
2023-03-01T02:03:43.329Z,69.79
2023-03-01T02:06:20.221Z,69.78
2023-03-01T02:08:54.128Z,69.73
2023-03-01T02:11:27.826Z,70.01
2023-03-01T02:14:02.314Z,69.67
2023-03-01T02:16:35.567Z,69.33
2023-03-01T02:19:09.610Z,69.64
2023-03-01T02:21:46.377Z,69.56
2023-03-01T02:24:24.908Z,70.02
2023-03-01T02:26:59.989Z,70.04
2023-03-01T02:29:34.182Z,70.07
2023-03-01T02:32:07.204Z,70.11
2023-03-01T02:34:40.720Z,70.06
2023-03-01T02:37:16.030Z,70.21
2023-03-01T02:39:50.302Z,69.33
2023-03-01T02:42:27.269Z,69.58
2023-03-01T02:45:01.661Z,69.72
2023-03-01T02:47:34.854Z,69.79
2023-03-01T02:50:13.246Z,69.56
2023-03-01T02:52:47.981Z,69.72
2023-03-01T02:55:20.685Z,70.05
2023-03-01T02:57:53.674Z,70.27
2023-03-01T03:00:30.653Z,70.58
2023-03-01T03:03:03.558Z,70.40
2023-03-01T03:05:37.246Z,70.35
2023-03-01T03:08:10.291Z,71.11
2023-03-01T03:10:43.954Z,70.66
2023-03-01T03:13:18.219Z,70.60
2023-03-01T03:15:52.319Z,70.51
2023-03-01T03:18:26.942Z,70.10
2023-03-01T03:20:59.952Z,70.60
2023-03-01T03:23:32.625Z,70.08
2023-03-01T03:26:05.913Z,70.55
2023-03-01T03:28:40.965Z,70.31
2023-03-01T03:31:15.160Z,70.33
2023-03-01T03:33:47.940Z,70.34
2023-03-01T03:36:21.518Z,70.27
2023-03-01T03:38:54.258Z,69.83
2023-03-01T03:41:28.179Z,70.23
2023-03-01T03:44:01.590Z,69.95
2023-03-01T03:46:36.532Z,70.09
2023-03-01T03:49:09.415Z,70.19
2023-03-01T03:51:42.113Z,70.33
2023-03-01T03:54:14.809Z,70.09
2023-03-01T03:56:47.486Z,70.43
2023-03-01T03:59:20.160Z,70.68
2023-03-01T04:01:54.219Z,70.66
2023-03-01T04:04:26.969Z,70.58
2023-03-01T04:06:59.613Z,69.89
2023-03-01T04:09:32.342Z,69.77
2023-03-01T04:12:04.989Z,70.24
2023-03-01T04:14:37.695Z,69.61
2023-03-01T04:17:11.781Z,69.85
2023-03-01T04:19:45.062Z,70.44
2023-03-01T04:22:19.390Z,69.85
2023-03-01T04:24:52.144Z,69.62
2023-03-01T04:27:24.825Z,69.80
2023-03-01T04:29:57.617Z,70.19
2023-03-01T04:32:32.741Z,69.60
2023-03-01T04:35:05.746Z,69.57
2023-03-01T04:37:38.438Z,69.60
2023-03-01T04:40:17.267Z,69.82
2023-03-01T04:42:50.008Z,69.97
2023-03-01T04:45:22.859Z,70.37
2023-03-01T04:47:59.238Z,69.64
2023-03-01T04:50:32.000Z,69.68
2023-03-01T04:53:04.710Z,69.81
2023-03-01T04:55:37.400Z,70.12
2023-03-01T04:58:10.156Z,70.26
2023-03-01T05:00:42.817Z,69.72
2023-03-01T05:03:19.125Z,69.97
2023-03-01T05:05:53.281Z,69.90
2023-03-01T05:08:25.974Z,69.71
2023-03-01T05:10:58.648Z,70.05
2023-03-01T05:13:31.470Z,70.04
2023-03-01T05:16:05.184Z,69.90
2023-03-01T05:18:39.538Z,69.99
2023-03-01T05:21:13.115Z,70.08
2023-03-01T05:23:45.918Z,69.98
2023-03-01T05:26:28.173Z,70.26
2023-03-01T05:29:02.036Z,69.78
2023-03-01T05:31:34.821Z,70.10
2023-03-01T05:34:08.925Z,70.66
2023-03-01T05:36:41.619Z,70.51
2023-03-01T05:39:14.284Z,70.23
2023-03-01T05:41:46.955Z,70.25
2023-03-01T05:44:19.674Z,70.24
2023-03-01T05:46:52.526Z,69.89
2023-03-01T05:49:26.988Z,70.03
2023-03-01T05:51:59.660Z,69.86
2023-03-01T05:54:32.431Z,70.26
2023-03-01T05:57:05.091Z,69.76
2023-03-01T05:59:37.853Z,70.07
2023-03-01T06:02:10.547Z,70.18
2023-03-01T06:04:44.806Z,69.84
2023-03-01T06:07:17.653Z,69.76
2023-03-01T06:09:50.312Z,70.47
2023-03-01T06:12:22.994Z,69.48
2023-03-01T06:14:55.657Z,69.94
2023-03-01T06:17:28.524Z,70.41
2023-03-01T06:20:02.694Z,69.34
2023-03-01T06:22:35.429Z,69.38
2023-03-01T06:25:08.890Z,69.32
2023-03-01T06:27:41.952Z,69.59
2023-03-01T06:30:16.140Z,69.52
2023-03-01T06:32:49.581Z,69.44
2023-03-01T06:35:23.747Z,69.71
2023-03-01T06:37:56.417Z,69.61
2023-03-01T06:40:29.176Z,69.07
2023-03-01T06:43:01.946Z,69.19
2023-03-01T06:45:34.608Z,69.45
2023-03-01T06:48:08.368Z,69.04
2023-03-01T06:50:42.555Z,69.58
2023-03-01T06:53:15.278Z,69.61
2023-03-01T06:55:47.925Z,69.59
2023-03-01T06:58:20.612Z,70.17
2023-03-01T07:00:53.290Z,69.54
2023-03-01T07:03:26.160Z,70.46
2023-03-01T07:06:00.239Z,70.53
2023-03-01T07:08:32.883Z,70.30
2023-03-01T07:11:06.779Z,70.67
2023-03-01T07:13:39.485Z,70.32
2023-03-01T07:16:12.188Z,69.96
2023-03-01T07:18:44.879Z,69.94
2023-03-01T07:21:19.030Z,69.38
2023-03-01T07:23:51.730Z,69.27
2023-03-01T07:26:26.183Z,69.50
2023-03-01T07:29:00.921Z,70.10
2023-03-01T07:31:33.865Z,69.89
2023-03-01T07:34:06.526Z,69.93
2023-03-01T07:36:44.120Z,69.68
2023-03-01T07:39:18.611Z,65.77
2023-03-01T07:41:52.550Z,69.10
2023-03-01T07:44:25.326Z,68.66
2023-03-01T07:46:59.276Z,69.60
2023-03-01T07:49:34.316Z,68.51
2023-03-01T07:52:08.495Z,69.25
2023-03-01T07:54:41.643Z,69.17
2023-03-01T07:57:14.542Z,70.28
2023-03-01T07:59:47.707Z,70.23
2023-03-01T08:02:20.574Z,69.68
2023-03-01T08:04:53.290Z,70.44
2023-03-01T08:07:27.435Z,70.76
2023-03-01T08:10:00.104Z,70.04
2023-03-01T08:12:33.192Z,70.13
2023-03-01T08:15:06.288Z,70.35
2023-03-01T08:17:39.004Z,70.49
2023-03-01T08:20:13.720Z,70.87
2023-03-01T08:22:47.985Z,70.65
2023-03-01T08:25:20.646Z,70.78
2023-03-01T08:27:53.418Z,70.79
2023-03-01T08:30:26.060Z,70.80
2023-03-01T08:32:58.795Z,70.72
2023-03-01T08:35:31.547Z,70.41
2023-03-01T08:38:05.601Z,70.90
2023-03-01T08:40:38.277Z,70.50
2023-03-01T08:43:10.977Z,70.71
2023-03-01T08:45:43.664Z,71.22
2023-03-01T08:48:16.384Z,70.21
2023-03-01T08:50:49.128Z,69.95
2023-03-01T08:53:23.431Z,70.24
2023-03-01T08:55:56.102Z,70.95
2023-03-01T08:58:28.773Z,70.88
2023-03-01T09:01:01.501Z,71.15
2023-03-01T09:03:34.187Z,71.26
2023-03-01T09:06:08.475Z,71.49
2023-03-01T09:08:43.491Z,71.40
2023-03-01T09:11:17.747Z,71.79
2023-03-01T09:13:50.924Z,71.26
2023-03-01T09:16:24.159Z,71.01
2023-03-01T09:18:57.212Z,70.03
2023-03-01T09:21:40.163Z,69.13
2023-03-01T09:24:16.039Z,70.04
2023-03-01T09:26:50.785Z,69.66
2023-03-01T09:29:24.794Z,70.22
2023-03-01T09:31:57.495Z,70.98
2023-03-01T09:34:30.562Z,70.87
2023-03-01T09:37:03.539Z,71.65
2023-03-01T09:39:37.969Z,71.17
2023-03-01T09:42:13.384Z,69.39
2023-03-01T09:44:48.341Z,72.48
2023-03-01T09:47:22.341Z,71.75
2023-03-01T09:49:59.743Z,71.65
2023-03-01T09:52:35.912Z,69.20
2023-03-01T09:55:13.441Z,70.45
2023-03-01T09:57:49.889Z,70.86
2023-03-01T10:00:27.224Z,70.99
2023-03-01T10:03:01.709Z,71.81
2023-03-01T10:05:38.997Z,72.21
2023-03-01T10:08:27.182Z,72.15
2023-03-01T10:11:01.667Z,72.03
2023-03-01T10:13:39.560Z,71.89
2023-03-01T10:16:15.330Z,71.72
2023-03-01T10:18:51.113Z,72.07
2023-03-01T10:21:24.275Z,71.83
2023-03-01T10:23:59.332Z,71.41
2023-03-01T10:26:44.309Z,71.78
2023-03-01T10:29:17.020Z,71.75
2023-03-01T10:31:50.712Z,71.69
2023-03-01T10:34:29.065Z,68.41
2023-03-01T10:37:03.747Z,70.30
2023-03-01T10:39:36.475Z,68.87
2023-03-01T10:42:22.225Z,69.68
2023-03-01T10:44:54.840Z,70.03
2023-03-01T10:47:28.611Z,71.77
2023-03-01T10:50:02.632Z,70.92
2023-03-01T10:52:36.695Z,71.61
2023-03-01T10:55:25.413Z,71.68
2023-03-01T10:58:20.175Z,70.53
2023-03-01T11:00:53.949Z,72.06
2023-03-01T11:03:27.596Z,71.16
2023-03-01T11:06:01.671Z,71.85
2023-03-01T11:08:36.883Z,72.80
2023-03-01T11:11:19.278Z,73.23
2023-03-01T11:13:55.223Z,71.12
2023-03-01T11:16:30.093Z,70.86
2023-03-01T11:19:18.232Z,71.01
2023-03-01T11:21:57.556Z,71.01
2023-03-01T11:24:37.221Z,70.55
2023-03-01T11:27:17.664Z,70.74
2023-03-01T11:29:55.005Z,70.48
2023-03-01T11:32:30.413Z,71.72
2023-03-01T11:35:05.198Z,71.25
2023-03-01T11:37:40.082Z,71.35
2023-03-01T11:40:14.705Z,68.20
2023-03-01T11:43:02.400Z,71.09
2023-03-01T11:45:42.693Z,69.49
2023-03-01T11:48:49.532Z,69.13
2023-03-01T11:51:27.230Z,68.53
2023-03-01T11:54:06.016Z,68.38
2023-03-01T11:56:41.124Z,64.40
2023-03-01T11:59:31.001Z,68.55
2023-03-01T12:02:22.071Z,67.09
2023-03-01T12:05:27.733Z,66.92
2023-03-01T12:08:03.195Z,67.15
2023-03-01T12:10:39.330Z,67.36
2023-03-01T12:13:44.645Z,68.76
2023-03-01T12:16:38.434Z,69.68
2023-03-01T12:19:34.945Z,68.64
2023-03-01T12:22:15.144Z,69.59
2023-03-01T12:25:04.631Z,70.07
2023-03-01T12:27:52.458Z,69.22
2023-03-01T12:30:30.492Z,69.38
2023-03-01T12:33:12.904Z,70.23
2023-03-01T12:35:56.439Z,69.13
2023-03-01T12:38:36.305Z,69.42
2023-03-01T12:41:23.801Z,69.78
2023-03-01T12:44:06.997Z,66.35
2023-03-01T12:46:53.713Z,69.83
2023-03-01T12:49:29.026Z,70.17
2023-03-01T12:52:06.340Z,65.31
2023-03-01T12:54:39.302Z,67.80
2023-03-01T12:57:17.103Z,69.17
2023-03-01T12:59:55.790Z,65.33
2023-03-01T13:02:33.206Z,67.64
2023-03-01T13:05:19.232Z,70.41
2023-03-01T13:07:57.290Z,71.98
2023-03-01T13:10:33.700Z,70.82
2023-03-01T13:13:14.895Z,70.54
2023-03-01T13:15:48.804Z,70.24
2023-03-01T13:18:34.498Z,67.98
2023-03-01T13:21:07.217Z,70.42
2023-03-01T13:23:42.614Z,64.82
2023-03-01T13:26:16.612Z,69.22
2023-03-01T13:28:53.926Z,64.57
2023-03-01T13:31:44.192Z,67.13
2023-03-01T13:34:31.768Z,68.44
2023-03-01T13:37:10.839Z,67.58
2023-03-01T13:39:44.961Z,69.67
2023-03-01T13:42:35.389Z,70.20
2023-03-01T13:45:17.730Z,69.40
2023-03-01T13:47:52.519Z,69.17
2023-03-01T13:50:26.671Z,69.46
2023-03-01T13:53:01.527Z,66.77
2023-03-01T13:55:38.928Z,67.88
2023-03-01T13:58:20.846Z,69.23
2023-03-01T14:01:00.674Z,69.72
2023-03-01T14:03:34.424Z,68.56
2023-03-01T14:06:15.190Z,68.06
2023-03-01T14:08:49.775Z,69.12
2023-03-01T14:11:40.330Z,69.21
2023-03-01T14:14:21.969Z,68.74
2023-03-01T14:17:00.166Z,69.47
2023-03-01T14:19:34.417Z,69.62
2023-03-01T14:22:15.479Z,69.83
2023-03-01T14:24:50.189Z,70.93
2023-03-01T14:27:22.871Z,69.84
2023-03-01T14:30:00.738Z,70.03
2023-03-01T14:32:33.785Z,70.17
2023-03-01T14:35:21.590Z,70.31
2023-03-01T14:37:54.332Z,62.75
2023-03-01T14:40:29.496Z,67.77
2023-03-01T14:43:04.032Z,63.64
2023-03-01T14:45:38.271Z,64.86
2023-03-01T14:48:11.075Z,69.98
2023-03-01T14:50:44.478Z,69.53
2023-03-01T14:53:19.604Z,66.93
2023-03-01T14:55:53.898Z,68.02
2023-03-01T14:58:27.410Z,69.13
2023-03-01T15:01:02.629Z,69.79
2023-03-01T15:03:38.063Z,69.76
2023-03-01T15:06:11.454Z,70.40
2023-03-01T15:08:46.806Z,69.72
2023-03-01T15:11:23.801Z,71.12
2023-03-01T15:13:56.629Z,70.90
2023-03-01T15:16:32.808Z,70.54
2023-03-01T15:19:06.959Z,70.67
2023-03-01T15:21:40.572Z,69.57
2023-03-01T15:24:21.419Z,71.17
2023-03-01T15:26:58.645Z,69.66
2023-03-01T15:29:34.310Z,69.50
2023-03-01T15:32:24.938Z,69.32
2023-03-01T15:34:57.854Z,70.49
2023-03-01T15:37:48.640Z,70.68
2023-03-01T15:40:24.913Z,69.89
2023-03-01T15:42:57.590Z,70.10
2023-03-01T15:45:31.194Z,70.51
2023-03-01T15:48:06.743Z,71.39
2023-03-01T15:50:41.104Z,70.43
2023-03-01T15:53:15.390Z,70.58
2023-03-01T15:55:50.600Z,70.91
2023-03-01T15:58:24.263Z,71.02
2023-03-01T16:01:01.289Z,67.65
2023-03-01T16:03:35.908Z,69.20
2023-03-01T16:06:10.672Z,70.45
2023-03-01T16:08:43.874Z,69.79
2023-03-01T16:11:18.433Z,70.29
2023-03-01T16:13:51.894Z,71.17
2023-03-01T16:16:24.622Z,70.71
2023-03-01T16:18:58.885Z,70.64
2023-03-01T16:21:32.067Z,70.37
2023-03-01T16:24:05.191Z,70.11
2023-03-01T16:26:38.487Z,70.56
2023-03-01T16:29:11.215Z,70.00
2023-03-01T16:31:43.956Z,69.10
2023-03-01T16:34:18.471Z,69.72
2023-03-01T16:36:51.178Z,69.73
2023-03-01T16:39:23.850Z,70.05
2023-03-01T16:41:56.558Z,70.68
2023-03-01T16:44:29.208Z,71.56
2023-03-01T16:47:01.911Z,70.40
2023-03-01T16:49:35.958Z,70.52
2023-03-01T16:52:08.611Z,70.39
2023-03-01T16:54:41.637Z,70.56
2023-03-01T16:57:14.404Z,71.14
2023-03-01T16:59:47.116Z,70.92
2023-03-01T17:02:20.836Z,70.54
2023-03-01T17:04:55.541Z,70.10
2023-03-01T17:07:28.434Z,69.94
2023-03-01T17:10:01.142Z,70.56
2023-03-01T17:12:34.941Z,70.30
2023-03-01T17:15:08.347Z,70.30
2023-03-01T17:17:41.041Z,70.61
2023-03-01T17:20:15.221Z,70.23
2023-03-01T17:22:47.973Z,69.80
2023-03-01T17:25:20.934Z,69.90
2023-03-01T17:27:53.968Z,69.54
2023-03-01T17:30:26.722Z,70.39
2023-03-01T17:32:59.573Z,70.25
2023-03-01T17:35:37.091Z,69.21
2023-03-01T17:38:09.774Z,69.37
2023-03-01T17:40:42.986Z,70.28
2023-03-01T17:43:16.346Z,69.48
2023-03-01T17:45:50.797Z,69.39
2023-03-01T17:48:23.586Z,69.73
2023-03-01T17:50:57.666Z,70.00
2023-03-01T17:53:30.482Z,70.12
2023-03-01T17:56:03.720Z,70.46
2023-03-01T17:58:37.111Z,70.31
2023-03-01T18:01:14.007Z,70.49
2023-03-01T18:03:47.721Z,69.90
2023-03-01T18:06:23.953Z,70.17
2023-03-01T18:08:57.103Z,69.91
2023-03-01T18:11:30.125Z,69.21
2023-03-01T18:14:02.978Z,69.45
2023-03-01T18:16:35.967Z,69.99
2023-03-01T18:19:08.745Z,69.63
2023-03-01T18:21:44.026Z,69.59
2023-03-01T18:24:16.848Z,69.98
2023-03-01T18:26:49.474Z,69.81
2023-03-01T18:29:22.150Z,70.54
2023-03-01T18:31:57.092Z,70.29
2023-03-01T18:34:29.932Z,70.10
2023-03-01T18:37:09.670Z,70.53
2023-03-01T18:39:42.741Z,70.70
2023-03-01T18:42:16.449Z,71.03
2023-03-01T18:44:49.303Z,70.68
2023-03-01T18:47:21.984Z,70.35
2023-03-01T18:49:54.671Z,70.38
2023-03-01T18:52:28.726Z,71.08
2023-03-01T18:55:01.434Z,70.72
2023-03-01T18:57:34.081Z,70.19
2023-03-01T19:00:07.456Z,70.84
2023-03-01T19:02:40.394Z,70.95
2023-03-01T19:05:13.189Z,70.93
2023-03-01T19:07:47.254Z,70.33
2023-03-01T19:10:20.028Z,71.03
2023-03-01T19:12:52.817Z,70.48
2023-03-01T19:15:25.469Z,70.43
2023-03-01T19:17:59.021Z,70.97
2023-03-01T19:20:31.800Z,70.25
2023-03-01T19:23:05.925Z,70.08
2023-03-01T19:25:38.962Z,70.09
2023-03-01T19:28:11.613Z,70.49
2023-03-01T19:30:44.346Z,70.26
2023-03-01T19:33:17.021Z,70.16
2023-03-01T19:35:51.477Z,69.54
2023-03-01T19:38:25.679Z,71.05
2023-03-01T19:40:58.599Z,70.46
2023-03-01T19:43:31.321Z,69.97
2023-03-01T19:46:04.380Z,69.87
2023-03-01T19:48:37.043Z,70.49
2023-03-01T19:51:10.264Z,70.34
2023-03-01T19:53:44.328Z,70.40
2023-03-01T19:56:17.344Z,70.31
2023-03-01T19:58:50.517Z,68.56
2023-03-01T20:01:24.211Z,69.13
2023-03-01T20:03:57.287Z,69.71
2023-03-01T20:06:30.723Z,70.16
2023-03-01T20:09:19.032Z,69.59
2023-03-01T20:11:53.280Z,70.53
2023-03-01T20:14:26.386Z,70.78
2023-03-01T20:16:59.027Z,70.96
2023-03-01T20:19:31.726Z,70.90
2023-03-01T20:22:04.850Z,70.43
2023-03-01T20:24:38.933Z,71.04
2023-03-01T20:27:11.909Z,70.15
2023-03-01T20:29:45.960Z,70.45
2023-03-01T20:32:18.816Z,71.14
2023-03-01T20:34:52.069Z,70.82
2023-03-01T20:37:24.951Z,70.68
2023-03-01T20:39:59.098Z,71.18
2023-03-01T20:42:31.799Z,71.28
2023-03-01T20:45:04.742Z,70.87
2023-03-01T20:47:37.422Z,70.75
2023-03-01T20:50:10.767Z,71.11
2023-03-01T20:52:47.820Z,71.08
2023-03-01T20:55:22.093Z,70.81
2023-03-01T20:57:54.918Z,70.50
2023-03-01T21:00:27.648Z,70.48
2023-03-01T21:03:00.445Z,71.33
2023-03-01T21:05:33.102Z,70.73
2023-03-01T21:08:06.010Z,71.19
2023-03-01T21:10:40.321Z,70.50
2023-03-01T21:13:12.974Z,70.30
2023-03-01T21:15:52.988Z,70.66
2023-03-01T21:18:30.170Z,70.80
2023-03-01T21:21:04.324Z,71.05
2023-03-01T21:23:38.214Z,70.61
2023-03-01T21:26:13.268Z,70.97
2023-03-01T21:28:45.989Z,71.17
2023-03-01T21:31:19.617Z,70.83
2023-03-01T21:33:54.576Z,71.37
2023-03-01T21:36:28.756Z,71.31
2023-03-01T21:39:02.592Z,71.25
2023-03-01T21:41:37.820Z,71.10
2023-03-01T21:44:10.497Z,71.01
2023-03-01T21:46:43.442Z,70.85
2023-03-01T21:49:16.276Z,71.05
2023-03-01T21:51:49.285Z,70.69
2023-03-01T21:54:22.483Z,70.90
2023-03-01T21:56:56.519Z,71.17
2023-03-01T21:59:29.361Z,70.57
2023-03-01T22:02:02.045Z,70.95
2023-03-01T22:04:34.816Z,71.36
2023-03-01T22:07:08.025Z,70.90
2023-03-01T22:09:40.873Z,71.00
2023-03-01T22:12:14.900Z,70.80
2023-03-01T22:14:47.696Z,71.69
2023-03-01T22:17:20.354Z,70.36
2023-03-01T22:19:53.040Z,71.05
2023-03-01T22:22:25.732Z,71.08
2023-03-01T22:24:58.468Z,70.52
2023-03-01T22:27:32.569Z,70.81
2023-03-01T22:30:06.229Z,70.27
2023-03-01T22:32:38.958Z,70.92
2023-03-01T22:35:12.083Z,70.61
2023-03-01T22:37:44.789Z,71.25
2023-03-01T22:40:17.541Z,71.43
2023-03-01T22:42:51.853Z,71.48
2023-03-01T22:45:24.572Z,71.27
2023-03-01T22:47:57.298Z,71.69
2023-03-01T22:50:30.105Z,70.80
2023-03-01T22:53:02.910Z,71.00
2023-03-01T22:55:35.681Z,70.93
2023-03-01T22:58:09.811Z,71.57
2023-03-01T23:00:42.583Z,71.24
2023-03-01T23:03:17.381Z,71.50
2023-03-01T23:05:50.111Z,71.61
2023-03-01T23:08:22.812Z,71.39
2023-03-01T23:10:55.512Z,71.80
2023-03-01T23:13:29.531Z,71.56
2023-03-01T23:16:02.367Z,71.77
2023-03-01T23:18:35.257Z,71.64
2023-03-01T23:21:12.652Z,72.01
2023-03-01T23:23:46.688Z,71.24
2023-03-01T23:26:22.367Z,71.46
2023-03-01T23:28:57.492Z,71.23
2023-03-01T23:31:30.298Z,71.76
2023-03-01T23:34:03.067Z,70.94
2023-03-01T23:36:36.329Z,71.26
2023-03-01T23:39:08.983Z,71.50
2023-03-01T23:41:41.674Z,71.41
2023-03-01T23:44:17.838Z,71.04
2023-03-01T23:46:51.173Z,71.18
2023-03-01T23:49:24.845Z,71.77
2023-03-01T23:51:57.529Z,71.56
2023-03-01T23:54:30.265Z,71.29
2023-03-01T23:57:03.135Z,71.23
2023-03-01T23:59:37.168Z,71.13
